Carroll Plt, Maine
Current Conditions -  °F | °C
As of 7:30 AM on Thursday 23 Oct 2014 (Local Time) from KMLT Reporting Station
Light Rain Light Rain  
Wind Chill: 39°   Ceiling: 800
Heat Index: 45°   Visibility: 3mi
Dew Point: 43°   Wind: 12mph
Humidity: 93%   Direction: 40°NE
Pressure: 30.09"   Gusts: 21mph
Location:  45.3189°N, 68.0613°W
Report Text: KMLT 231130Z AUTO 04010G18KT 3SM -RA BR OVC008 07/06 A3009 RMK AO2 P0002 T00720061
Loading
Personal Weather Stations






























Interactive Weather Map
Tropical Storm Tracking
New forecast layout! Learn more

10-Day Weather Forecast

Advertisements
Track Severe Weather on mobile